sensor_id;sensor_type;location;lat;lon;timestamp;temperature;humidity
69328;DHT22;56472;52.114;5.492;2023-07-31T00:01:36;24.20;61.00
69328;DHT22;56472;52.114;5.492;2023-07-31T00:04:03;24.20;61.00
69328;DHT22;56472;52.114;5.492;2023-07-31T00:06:30;24.20;60.90
69328;DHT22;56472;52.114;5.492;2023-07-31T00:08:56;24.20;60.90
69328;DHT22;56472;52.114;5.492;2023-07-31T00:11:23;24.20;61.00
69328;DHT22;56472;52.114;5.492;2023-07-31T00:13:50;24.20;61.00
69328;DHT22;56472;52.114;5.492;2023-07-31T00:16:17;24.20;61.00
69328;DHT22;56472;52.114;5.492;2023-07-31T00:18:44;24.20;61.10
69328;DHT22;56472;52.114;5.492;2023-07-31T00:21:10;24.20;61.10
69328;DHT22;56472;52.114;5.492;2023-07-31T00:23:37;24.20;61.10
69328;DHT22;56472;52.114;5.492;2023-07-31T00:26:04;24.20;61.10
69328;DHT22;56472;52.114;5.492;2023-07-31T00:28:31;24.20;61.20
69328;DHT22;56472;52.114;5.492;2023-07-31T00:30:57;24.20;61.20
69328;DHT22;56472;52.114;5.492;2023-07-31T00:33:25;24.20;61.20
69328;DHT22;56472;52.114;5.492;2023-07-31T00:35:52;24.20;61.30
69328;DHT22;56472;52.114;5.492;2023-07-31T00:38:18;24.20;61.20
69328;DHT22;56472;52.114;5.492;2023-07-31T00:40:45;24.20;61.20
69328;DHT22;56472;52.114;5.492;2023-07-31T00:43:12;24.20;61.20
69328;DHT22;56472;52.114;5.492;2023-07-31T00:45:40;24.20;61.20
69328;DHT22;56472;52.114;5.492;2023-07-31T00:48:07;24.20;61.30
69328;DHT22;56472;52.114;5.492;2023-07-31T00:50:35;24.20;61.30
69328;DHT22;56472;52.114;5.492;2023-07-31T00:53:02;24.20;61.30
69328;DHT22;56472;52.114;5.492;2023-07-31T00:55:29;24.20;61.40
69328;DHT22;56472;52.114;5.492;2023-07-31T00:57:56;24.10;61.50
69328;DHT22;56472;52.114;5.492;2023-07-31T01:00:23;24.20;61.60
69328;DHT22;56472;52.114;5.492;2023-07-31T01:02:51;24.10;61.60
69328;DHT22;56472;52.114;5.492;2023-07-31T01:05:29;24.10;61.70
69328;DHT22;56472;52.114;5.492;2023-07-31T01:08:06;24.10;61.80
69328;DHT22;56472;52.114;5.492;2023-07-31T01:10:48;24.10;61.80
69328;DHT22;56472;52.114;5.492;2023-07-31T01:13:18;24.10;61.90
69328;DHT22;56472;52.114;5.492;2023-07-31T01:15:45;24.10;62.00
69328;DHT22;56472;52.114;5.492;2023-07-31T01:18:11;24.10;62.10
69328;DHT22;56472;52.114;5.492;2023-07-31T01:20:41;24.10;62.20
69328;DHT22;56472;52.114;5.492;2023-07-31T01:28:23;24.10;62.40
69328;DHT22;56472;52.114;5.492;2023-07-31T01:30:52;24.10;62.40
69328;DHT22;56472;52.114;5.492;2023-07-31T01:33:22;24.10;62.60
69328;DHT22;56472;52.114;5.492;2023-07-31T01:35:49;24.10;62.60
69328;DHT22;56472;52.114;5.492;2023-07-31T01:38:20;24.00;62.60
69328;DHT22;56472;52.114;5.492;2023-07-31T01:40:51;24.00;62.70
69328;DHT22;56472;52.114;5.492;2023-07-31T01:43:19;24.00;62.80
69328;DHT22;56472;52.114;5.492;2023-07-31T01:45:46;24.00;63.70
69328;DHT22;56472;52.114;5.492;2023-07-31T01:48:13;24.00;62.90
69328;DHT22;56472;52.114;5.492;2023-07-31T01:50:40;24.00;63.80
69328;DHT22;56472;52.114;5.492;2023-07-31T01:53:07;24.00;63.00
69328;DHT22;56472;52.114;5.492;2023-07-31T01:55:34;24.00;63.10
69328;DHT22;56472;52.114;5.492;2023-07-31T01:58:01;24.00;63.10
69328;DHT22;56472;52.114;5.492;2023-07-31T02:00:27;24.00;63.10
69328;DHT22;56472;52.114;5.492;2023-07-31T02:02:54;24.00;63.10
69328;DHT22;56472;52.114;5.492;2023-07-31T02:05:21;24.00;63.20
69328;DHT22;56472;52.114;5.492;2023-07-31T02:07:48;24.00;63.20
69328;DHT22;56472;52.114;5.492;2023-07-31T02:10:15;24.00;63.20
69328;DHT22;56472;52.114;5.492;2023-07-31T02:12:42;24.00;63.30
69328;DHT22;56472;52.114;5.492;2023-07-31T02:15:09;24.00;63.30
69328;DHT22;56472;52.114;5.492;2023-07-31T02:17:36;24.00;63.30
69328;DHT22;56472;52.114;5.492;2023-07-31T02:20:03;24.00;63.30
69328;DHT22;56472;52.114;5.492;2023-07-31T02:22:30;24.00;63.40
69328;DHT22;56472;52.114;5.492;2023-07-31T02:24:57;24.00;63.40
69328;DHT22;56472;52.114;5.492;2023-07-31T02:27:24;24.00;63.50
69328;DHT22;56472;52.114;5.492;2023-07-31T02:29:54;24.00;63.50
69328;DHT22;56472;52.114;5.492;2023-07-31T02:32:21;24.00;63.50
69328;DHT22;56472;52.114;5.492;2023-07-31T02:34:49;24.00;63.50
69328;DHT22;56472;52.114;5.492;2023-07-31T02:37:16;24.00;63.60
69328;DHT22;56472;52.114;5.492;2023-07-31T02:39:43;24.00;63.60
69328;DHT22;56472;52.114;5.492;2023-07-31T02:42:09;24.00;63.60
69328;DHT22;56472;52.114;5.492;2023-07-31T02:44:36;24.00;63.60
69328;DHT22;56472;52.114;5.492;2023-07-31T02:47:03;24.00;63.60
69328;DHT22;56472;52.114;5.492;2023-07-31T02:49:30;24.00;63.60
69328;DHT22;56472;52.114;5.492;2023-07-31T02:51:57;24.00;63.70
69328;DHT22;56472;52.114;5.492;2023-07-31T02:54:24;24.00;63.70
69328;DHT22;56472;52.114;5.492;2023-07-31T02:56:51;24.00;63.70
69328;DHT22;56472;52.114;5.492;2023-07-31T02:59:17;24.00;63.70
69328;DHT22;56472;52.114;5.492;2023-07-31T03:01:45;24.00;63.70
69328;DHT22;56472;52.114;5.492;2023-07-31T03:04:12;24.00;63.80
69328;DHT22;56472;52.114;5.492;2023-07-31T03:06:38;24.00;63.80
69328;DHT22;56472;52.114;5.492;2023-07-31T03:09:06;23.90;63.70
69328;DHT22;56472;52.114;5.492;2023-07-31T03:11:33;23.90;63.70
69328;DHT22;56472;52.114;5.492;2023-07-31T03:13:59;23.90;63.80
69328;DHT22;56472;52.114;5.492;2023-07-31T03:16:26;24.00;63.90
69328;DHT22;56472;52.114;5.492;2023-07-31T03:18:54;23.90;63.80
69328;DHT22;56472;52.114;5.492;2023-07-31T03:21:21;23.90;63.80
69328;DHT22;56472;52.114;5.492;2023-07-31T03:23:47;23.90;63.80
69328;DHT22;56472;52.114;5.492;2023-07-31T03:26:14;23.90;63.90
69328;DHT22;56472;52.114;5.492;2023-07-31T03:28:41;23.90;63.90
69328;DHT22;56472;52.114;5.492;2023-07-31T03:31:08;23.90;63.90
69328;DHT22;56472;52.114;5.492;2023-07-31T03:33:35;23.90;63.90
69328;DHT22;56472;52.114;5.492;2023-07-31T03:36:02;23.90;64.80
69328;DHT22;56472;52.114;5.492;2023-07-31T03:38:29;23.90;63.90
69328;DHT22;56472;52.114;5.492;2023-07-31T03:40:56;23.90;63.90
69328;DHT22;56472;52.114;5.492;2023-07-31T03:43:25;23.90;63.90
69328;DHT22;56472;52.114;5.492;2023-07-31T03:45:53;23.90;63.90
69328;DHT22;56472;52.114;5.492;2023-07-31T03:48:20;23.90;63.90
69328;DHT22;56472;52.114;5.492;2023-07-31T03:50:47;23.90;63.90
69328;DHT22;56472;52.114;5.492;2023-07-31T03:53:13;23.90;63.90
69328;DHT22;56472;52.114;5.492;2023-07-31T03:55:41;23.90;63.90
69328;DHT22;56472;52.114;5.492;2023-07-31T03:58:07;23.90;63.90
69328;DHT22;56472;52.114;5.492;2023-07-31T04:00:34;23.90;63.90
69328;DHT22;56472;52.114;5.492;2023-07-31T04:03:01;23.90;64.80
69328;DHT22;56472;52.114;5.492;2023-07-31T04:05:31;23.90;63.90
69328;DHT22;56472;52.114;5.492;2023-07-31T04:07:58;23.90;63.80
69328;DHT22;56472;52.114;5.492;2023-07-31T04:10:25;23.90;63.90
69328;DHT22;56472;52.114;5.492;2023-07-31T04:12:52;23.90;63.80
69328;DHT22;56472;52.114;5.492;2023-07-31T04:15:18;23.90;63.90
69328;DHT22;56472;52.114;5.492;2023-07-31T04:17:45;23.90;63.80
69328;DHT22;56472;52.114;5.492;2023-07-31T04:20:12;23.90;63.80
69328;DHT22;56472;52.114;5.492;2023-07-31T04:22:38;23.90;63.80
69328;DHT22;56472;52.114;5.492;2023-07-31T04:25:05;23.90;63.70
69328;DHT22;56472;52.114;5.492;2023-07-31T04:27:32;23.90;63.70
69328;DHT22;56472;52.114;5.492;2023-07-31T04:29:59;23.90;63.70
69328;DHT22;56472;52.114;5.492;2023-07-31T04:32:26;23.80;63.70
69328;DHT22;56472;52.114;5.492;2023-07-31T04:34:53;23.90;63.70
69328;DHT22;56472;52.114;5.492;2023-07-31T04:37:19;23.90;63.70
69328;DHT22;56472;52.114;5.492;2023-07-31T04:39:46;23.90;63.70
69328;DHT22;56472;52.114;5.492;2023-07-31T04:42:13;23.90;63.70
69328;DHT22;56472;52.114;5.492;2023-07-31T04:44:40;23.90;63.70
69328;DHT22;56472;52.114;5.492;2023-07-31T04:47:07;23.90;63.70
69328;DHT22;56472;52.114;5.492;2023-07-31T04:49:33;23.90;63.70
69328;DHT22;56472;52.114;5.492;2023-07-31T04:52:00;23.90;63.70
69328;DHT22;56472;52.114;5.492;2023-07-31T04:54:27;23.80;63.60
69328;DHT22;56472;52.114;5.492;2023-07-31T04:56:54;23.90;63.70
69328;DHT22;56472;52.114;5.492;2023-07-31T04:59:20;23.80;63.60
69328;DHT22;56472;52.114;5.492;2023-07-31T05:01:47;23.90;63.70
69328;DHT22;56472;52.114;5.492;2023-07-31T05:04:14;23.80;63.60
69328;DHT22;56472;52.114;5.492;2023-07-31T05:06:42;23.90;63.70
69328;DHT22;56472;52.114;5.492;2023-07-31T05:09:08;23.80;63.70
69328;DHT22;56472;52.114;5.492;2023-07-31T05:11:39;23.80;63.70
69328;DHT22;56472;52.114;5.492;2023-07-31T05:14:07;23.80;63.70
69328;DHT22;56472;52.114;5.492;2023-07-31T05:16:34;23.80;63.70
69328;DHT22;56472;52.114;5.492;2023-07-31T05:19:01;23.80;63.70
69328;DHT22;56472;52.114;5.492;2023-07-31T05:21:28;23.80;63.70
69328;DHT22;56472;52.114;5.492;2023-07-31T05:23:55;23.80;63.70
69328;DHT22;56472;52.114;5.492;2023-07-31T05:26:21;23.80;63.70
69328;DHT22;56472;52.114;5.492;2023-07-31T05:28:48;23.80;63.70
69328;DHT22;56472;52.114;5.492;2023-07-31T05:31:15;23.80;63.70
69328;DHT22;56472;52.114;5.492;2023-07-31T05:33:42;23.80;63.70
69328;DHT22;56472;52.114;5.492;2023-07-31T05:36:09;23.80;63.70
69328;DHT22;56472;52.114;5.492;2023-07-31T05:38:36;23.80;63.70
69328;DHT22;56472;52.114;5.492;2023-07-31T05:41:03;23.80;63.70
69328;DHT22;56472;52.114;5.492;2023-07-31T05:43:29;23.80;63.70
69328;DHT22;56472;52.114;5.492;2023-07-31T05:45:56;23.80;63.80
69328;DHT22;56472;52.114;5.492;2023-07-31T05:48:23;23.80;63.70
69328;DHT22;56472;52.114;5.492;2023-07-31T05:50:50;23.80;63.80
69328;DHT22;56472;52.114;5.492;2023-07-31T05:53:17;23.80;63.80
69328;DHT22;56472;52.114;5.492;2023-07-31T05:55:43;23.80;63.80
69328;DHT22;56472;52.114;5.492;2023-07-31T05:58:10;23.80;63.80
69328;DHT22;56472;52.114;5.492;2023-07-31T06:00:37;23.80;63.80
69328;DHT22;56472;52.114;5.492;2023-07-31T06:03:04;23.80;64.30
69328;DHT22;56472;52.114;5.492;2023-07-31T06:05:31;23.80;63.80
69328;DHT22;56472;52.114;5.492;2023-07-31T06:07:58;23.80;63.80
69328;DHT22;56472;52.114;5.492;2023-07-31T06:10:24;23.80;63.80
69328;DHT22;56472;52.114;5.492;2023-07-31T06:12:52;23.80;63.80
69328;DHT22;56472;52.114;5.492;2023-07-31T06:15:19;23.80;63.90
69328;DHT22;56472;52.114;5.492;2023-07-31T06:17:46;23.80;63.90
69328;DHT22;56472;52.114;5.492;2023-07-31T06:20:13;23.80;63.90
69328;DHT22;56472;52.114;5.492;2023-07-31T06:22:39;23.80;63.80
69328;DHT22;56472;52.114;5.492;2023-07-31T06:25:06;23.80;63.90
69328;DHT22;56472;52.114;5.492;2023-07-31T06:27:33;23.80;63.90
69328;DHT22;56472;52.114;5.492;2023-07-31T06:30:00;23.80;63.90
69328;DHT22;56472;52.114;5.492;2023-07-31T06:32:27;23.80;63.90
69328;DHT22;56472;52.114;5.492;2023-07-31T06:34:54;23.80;63.90
69328;DHT22;56472;52.114;5.492;2023-07-31T06:37:20;23.80;64.80
69328;DHT22;56472;52.114;5.492;2023-07-31T06:39:47;23.80;63.90
69328;DHT22;56472;52.114;5.492;2023-07-31T06:42:14;23.80;64.00
69328;DHT22;56472;52.114;5.492;2023-07-31T06:44:41;23.80;63.90
69328;DHT22;56472;52.114;5.492;2023-07-31T06:47:08;23.80;64.00
69328;DHT22;56472;52.114;5.492;2023-07-31T06:49:35;23.80;64.00
69328;DHT22;56472;52.114;5.492;2023-07-31T06:52:02;23.80;64.00
69328;DHT22;56472;52.114;5.492;2023-07-31T06:54:29;23.80;64.00
69328;DHT22;56472;52.114;5.492;2023-07-31T06:56:55;23.80;64.00
69328;DHT22;56472;52.114;5.492;2023-07-31T06:59:22;23.80;64.00
69328;DHT22;56472;52.114;5.492;2023-07-31T07:01:49;23.80;64.10
69328;DHT22;56472;52.114;5.492;2023-07-31T07:04:16;23.80;64.10
69328;DHT22;56472;52.114;5.492;2023-07-31T07:06:42;23.80;64.20
69328;DHT22;56472;52.114;5.492;2023-07-31T07:09:09;23.80;64.10
69328;DHT22;56472;52.114;5.492;2023-07-31T07:11:36;23.80;64.20
69328;DHT22;56472;52.114;5.492;2023-07-31T07:14:04;23.80;64.70
69328;DHT22;56472;52.114;5.492;2023-07-31T07:16:31;23.80;64.20
69328;DHT22;56472;52.114;5.492;2023-07-31T07:18:57;23.80;64.20
69328;DHT22;56472;52.114;5.492;2023-07-31T07:21:30;23.80;64.20
69328;DHT22;56472;52.114;5.492;2023-07-31T07:23:57;23.80;64.30
69328;DHT22;56472;52.114;5.492;2023-07-31T07:26:24;23.80;64.30
69328;DHT22;56472;52.114;5.492;2023-07-31T07:28:51;23.80;64.30
69328;DHT22;56472;52.114;5.492;2023-07-31T07:31:17;23.80;64.40
69328;DHT22;56472;52.114;5.492;2023-07-31T07:33:44;23.90;64.40
69328;DHT22;56472;52.114;5.492;2023-07-31T07:36:11;23.90;64.40
69328;DHT22;56472;52.114;5.492;2023-07-31T07:38:39;23.90;64.50
69328;DHT22;56472;52.114;5.492;2023-07-31T07:41:07;23.90;64.50
69328;DHT22;56472;52.114;5.492;2023-07-31T07:43:34;23.90;64.50
69328;DHT22;56472;52.114;5.492;2023-07-31T07:46:01;23.90;64.60
69328;DHT22;56472;52.114;5.492;2023-07-31T07:48:28;23.90;64.60
69328;DHT22;56472;52.114;5.492;2023-07-31T07:50:54;23.90;64.60
69328;DHT22;56472;52.114;5.492;2023-07-31T07:53:21;23.90;64.70
69328;DHT22;56472;52.114;5.492;2023-07-31T07:55:48;23.90;64.70
69328;DHT22;56472;52.114;5.492;2023-07-31T07:58:15;23.90;65.60
69328;DHT22;56472;52.114;5.492;2023-07-31T08:00:41;23.90;64.70
69328;DHT22;56472;52.114;5.492;2023-07-31T08:03:08;23.90;64.80
69328;DHT22;56472;52.114;5.492;2023-07-31T08:05:36;23.90;64.90
69328;DHT22;56472;52.114;5.492;2023-07-31T08:08:03;23.90;64.80
69328;DHT22;56472;52.114;5.492;2023-07-31T08:10:30;23.90;64.90
69328;DHT22;56472;52.114;5.492;2023-07-31T08:12:56;23.90;64.90
69328;DHT22;56472;52.114;5.492;2023-07-31T08:15:23;23.90;64.90
69328;DHT22;56472;52.114;5.492;2023-07-31T08:17:50;23.90;65.00
69328;DHT22;56472;52.114;5.492;2023-07-31T08:20:17;23.90;65.00
69328;DHT22;56472;52.114;5.492;2023-07-31T08:22:44;23.90;65.00
69328;DHT22;56472;52.114;5.492;2023-07-31T08:25:10;23.90;65.00
69328;DHT22;56472;52.114;5.492;2023-07-31T08:27:37;23.90;65.00
69328;DHT22;56472;52.114;5.492;2023-07-31T08:30:05;23.90;65.10
69328;DHT22;56472;52.114;5.492;2023-07-31T08:32:31;23.90;65.00
69328;DHT22;56472;52.114;5.492;2023-07-31T08:34:58;24.00;65.20
69328;DHT22;56472;52.114;5.492;2023-07-31T08:37:25;24.00;65.20
69328;DHT22;56472;52.114;5.492;2023-07-31T08:39:52;24.00;65.10
69328;DHT22;56472;52.114;5.492;2023-07-31T08:42:18;24.00;65.20
69328;DHT22;56472;52.114;5.492;2023-07-31T08:44:46;24.00;65.20
69328;DHT22;56472;52.114;5.492;2023-07-31T08:47:14;24.00;65.20
69328;DHT22;56472;52.114;5.492;2023-07-31T08:49:42;24.00;65.30
69328;DHT22;56472;52.114;5.492;2023-07-31T08:52:10;24.00;65.30
69328;DHT22;56472;52.114;5.492;2023-07-31T08:54:37;24.00;65.30
69328;DHT22;56472;52.114;5.492;2023-07-31T08:57:05;24.00;65.10
69328;DHT22;56472;52.114;5.492;2023-07-31T08:59:34;24.00;65.20
69328;DHT22;56472;52.114;5.492;2023-07-31T09:02:07;24.00;65.30
69328;DHT22;56472;52.114;5.492;2023-07-31T09:04:35;24.00;65.40
69328;DHT22;56472;52.114;5.492;2023-07-31T09:07:03;24.10;66.20
69328;DHT22;56472;52.114;5.492;2023-07-31T09:09:31;24.10;65.40
69328;DHT22;56472;52.114;5.492;2023-07-31T09:11:58;24.10;65.50
69328;DHT22;56472;52.114;5.492;2023-07-31T09:14:26;24.10;65.60
69328;DHT22;56472;52.114;5.492;2023-07-31T09:16:58;24.10;65.60
69328;DHT22;56472;52.114;5.492;2023-07-31T09:19:33;24.10;65.60
69328;DHT22;56472;52.114;5.492;2023-07-31T09:22:07;24.10;65.60
69328;DHT22;56472;52.114;5.492;2023-07-31T09:24:34;24.10;65.70
69328;DHT22;56472;52.114;5.492;2023-07-31T09:27:01;24.10;65.80
69328;DHT22;56472;52.114;5.492;2023-07-31T09:29:29;24.10;66.60
69328;DHT22;56472;52.114;5.492;2023-07-31T09:31:56;24.10;66.60
69328;DHT22;56472;52.114;5.492;2023-07-31T09:34:30;24.10;65.80
69328;DHT22;56472;52.114;5.492;2023-07-31T09:37:03;24.10;65.80
69328;DHT22;56472;52.114;5.492;2023-07-31T09:39:31;24.10;65.90
69328;DHT22;56472;52.114;5.492;2023-07-31T09:41:57;24.10;66.00
69328;DHT22;56472;52.114;5.492;2023-07-31T09:44:38;24.10;65.90
69328;DHT22;56472;52.114;5.492;2023-07-31T09:47:06;24.10;66.00
69328;DHT22;56472;52.114;5.492;2023-07-31T09:49:47;24.10;66.00
69328;DHT22;56472;52.114;5.492;2023-07-31T09:52:13;24.10;66.10
69328;DHT22;56472;52.114;5.492;2023-07-31T09:54:41;24.10;66.10
69328;DHT22;56472;52.114;5.492;2023-07-31T09:57:09;24.10;66.20
69328;DHT22;56472;52.114;5.492;2023-07-31T09:59:36;24.10;66.30
69328;DHT22;56472;52.114;5.492;2023-07-31T10:02:03;24.20;66.40
69328;DHT22;56472;52.114;5.492;2023-07-31T10:04:30;24.20;66.40
69328;DHT22;56472;52.114;5.492;2023-07-31T10:06:59;24.20;66.50
69328;DHT22;56472;52.114;5.492;2023-07-31T10:09:31;24.20;66.60
69328;DHT22;56472;52.114;5.492;2023-07-31T10:12:00;24.20;66.60
69328;DHT22;56472;52.114;5.492;2023-07-31T10:14:30;24.30;66.70
69328;DHT22;56472;52.114;5.492;2023-07-31T10:16:58;24.20;66.70
69328;DHT22;56472;52.114;5.492;2023-07-31T10:19:26;24.30;66.80
69328;DHT22;56472;52.114;5.492;2023-07-31T10:21:54;24.20;66.70
69328;DHT22;56472;52.114;5.492;2023-07-31T10:24:23;24.30;66.70
69328;DHT22;56472;52.114;5.492;2023-07-31T10:26:52;24.30;66.70
69328;DHT22;56472;52.114;5.492;2023-07-31T10:29:20;24.30;66.70
69328;DHT22;56472;52.114;5.492;2023-07-31T10:31:48;24.30;66.70
69328;DHT22;56472;52.114;5.492;2023-07-31T10:34:16;24.30;66.80
69328;DHT22;56472;52.114;5.492;2023-07-31T10:36:42;24.30;66.80
69328;DHT22;56472;52.114;5.492;2023-07-31T10:39:37;24.30;66.80
69328;DHT22;56472;52.114;5.492;2023-07-31T10:42:14;24.30;67.00
69328;DHT22;56472;52.114;5.492;2023-07-31T10:44:46;24.30;67.00
69328;DHT22;56472;52.114;5.492;2023-07-31T10:47:16;24.30;67.20
69328;DHT22;56472;52.114;5.492;2023-07-31T10:49:46;24.30;67.10
69328;DHT22;56472;52.114;5.492;2023-07-31T10:52:14;24.20;67.20
69328;DHT22;56472;52.114;5.492;2023-07-31T10:54:45;24.20;67.30
69328;DHT22;56472;52.114;5.492;2023-07-31T10:57:22;24.20;67.30
69328;DHT22;56472;52.114;5.492;2023-07-31T10:59:49;24.20;68.40
69328;DHT22;56472;52.114;5.492;2023-07-31T11:02:26;24.20;67.60
69328;DHT22;56472;52.114;5.492;2023-07-31T11:05:11;24.20;67.70
69328;DHT22;56472;52.114;5.492;2023-07-31T11:07:50;24.30;68.70
69328;DHT22;56472;52.114;5.492;2023-07-31T11:10:18;24.30;67.70
69328;DHT22;56472;52.114;5.492;2023-07-31T11:12:46;24.20;67.60
69328;DHT22;56472;52.114;5.492;2023-07-31T11:15:13;24.30;67.70
69328;DHT22;56472;52.114;5.492;2023-07-31T11:17:40;24.30;67.60
69328;DHT22;56472;52.114;5.492;2023-07-31T11:20:07;24.30;67.40
69328;DHT22;56472;52.114;5.492;2023-07-31T11:22:35;24.30;67.40
69328;DHT22;56472;52.114;5.492;2023-07-31T11:25:05;24.30;67.60
69328;DHT22;56472;52.114;5.492;2023-07-31T11:27:39;24.40;67.70
69328;DHT22;56472;52.114;5.492;2023-07-31T11:30:07;24.30;67.80
69328;DHT22;56472;52.114;5.492;2023-07-31T11:32:37;24.40;67.80
69328;DHT22;56472;52.114;5.492;2023-07-31T11:35:04;24.30;67.80
69328;DHT22;56472;52.114;5.492;2023-07-31T11:37:42;24.40;67.90
69328;DHT22;56472;52.114;5.492;2023-07-31T11:40:09;24.30;68.00
69328;DHT22;56472;52.114;5.492;2023-07-31T11:42:36;24.40;68.00
69328;DHT22;56472;52.114;5.492;2023-07-31T11:45:08;24.40;68.00
69328;DHT22;56472;52.114;5.492;2023-07-31T11:47:37;24.30;67.90
69328;DHT22;56472;52.114;5.492;2023-07-31T11:50:06;24.30;68.00
69328;DHT22;56472;52.114;5.492;2023-07-31T11:52:44;24.30;68.00
69328;DHT22;56472;52.114;5.492;2023-07-31T11:55:12;24.40;68.10
69328;DHT22;56472;52.114;5.492;2023-07-31T11:57:40;24.40;68.00
69328;DHT22;56472;52.114;5.492;2023-07-31T12:00:09;24.40;67.90
69328;DHT22;56472;52.114;5.492;2023-07-31T12:02:37;24.30;67.90
69328;DHT22;56472;52.114;5.492;2023-07-31T12:05:11;24.40;67.90
69328;DHT22;56472;52.114;5.492;2023-07-31T12:10:31;24.30;67.70
69328;DHT22;56472;52.114;5.492;2023-07-31T12:13:02;24.40;67.80
69328;DHT22;56472;52.114;5.492;2023-07-31T12:15:45;24.30;67.80
69328;DHT22;56472;52.114;5.492;2023-07-31T12:18:19;24.40;68.00
69328;DHT22;56472;52.114;5.492;2023-07-31T12:20:48;24.40;68.10
69328;DHT22;56472;52.114;5.492;2023-07-31T12:23:22;24.40;68.20
69328;DHT22;56472;52.114;5.492;2023-07-31T12:26:15;24.40;68.20
69328;DHT22;56472;52.114;5.492;2023-07-31T12:28:45;24.40;68.20
69328;DHT22;56472;52.114;5.492;2023-07-31T12:31:18;24.40;68.30
69328;DHT22;56472;52.114;5.492;2023-07-31T12:33:47;24.40;68.30
69328;DHT22;56472;52.114;5.492;2023-07-31T12:36:16;24.40;68.20
69328;DHT22;56472;52.114;5.492;2023-07-31T12:38:44;24.40;68.40
69328;DHT22;56472;52.114;5.492;2023-07-31T12:41:12;24.40;68.30
69328;DHT22;56472;52.114;5.492;2023-07-31T12:43:41;24.40;68.20
69328;DHT22;56472;52.114;5.492;2023-07-31T12:46:08;24.40;68.30
69328;DHT22;56472;52.114;5.492;2023-07-31T12:48:39;24.40;68.30
69328;DHT22;56472;52.114;5.492;2023-07-31T12:51:06;24.40;68.20
69328;DHT22;56472;52.114;5.492;2023-07-31T12:53:36;24.40;68.30
69328;DHT22;56472;52.114;5.492;2023-07-31T12:56:03;24.50;69.30
69328;DHT22;56472;52.114;5.492;2023-07-31T12:58:30;24.40;68.30
69328;DHT22;56472;52.114;5.492;2023-07-31T13:00:57;24.40;68.30
69328;DHT22;56472;52.114;5.492;2023-07-31T13:03:24;24.40;69.20
69328;DHT22;56472;52.114;5.492;2023-07-31T13:05:52;24.40;68.40
69328;DHT22;56472;52.114;5.492;2023-07-31T13:08:19;24.40;68.40
69328;DHT22;56472;52.114;5.492;2023-07-31T13:10:46;24.40;68.40
69328;DHT22;56472;52.114;5.492;2023-07-31T13:13:13;24.40;68.40
69328;DHT22;56472;52.114;5.492;2023-07-31T13:15:40;24.40;68.40
69328;DHT22;56472;52.114;5.492;2023-07-31T13:18:07;24.40;68.40
69328;DHT22;56472;52.114;5.492;2023-07-31T13:20:34;24.40;68.50
69328;DHT22;56472;52.114;5.492;2023-07-31T13:23:00;24.40;68.60
69328;DHT22;56472;52.114;5.492;2023-07-31T13:25:27;24.40;68.50
69328;DHT22;56472;52.114;5.492;2023-07-31T13:27:55;24.40;68.50
69328;DHT22;56472;52.114;5.492;2023-07-31T13:30:22;24.40;68.60
69328;DHT22;56472;52.114;5.492;2023-07-31T13:32:49;24.40;68.70
69328;DHT22;56472;52.114;5.492;2023-07-31T13:35:16;24.40;68.70
69328;DHT22;56472;52.114;5.492;2023-07-31T13:37:43;24.40;68.70
69328;DHT22;56472;52.114;5.492;2023-07-31T13:40:10;24.40;68.50
69328;DHT22;56472;52.114;5.492;2023-07-31T13:42:37;24.40;68.40
69328;DHT22;56472;52.114;5.492;2023-07-31T13:45:04;24.40;68.60
69328;DHT22;56472;52.114;5.492;2023-07-31T13:47:33;24.40;68.70
69328;DHT22;56472;52.114;5.492;2023-07-31T13:50:01;24.40;69.00
69328;DHT22;56472;52.114;5.492;2023-07-31T13:52:28;24.40;69.10
69328;DHT22;56472;52.114;5.492;2023-07-31T13:54:55;24.40;69.30
69328;DHT22;56472;52.114;5.492;2023-07-31T13:57:21;24.40;70.30
69328;DHT22;56472;52.114;5.492;2023-07-31T13:59:49;24.50;69.30
69328;DHT22;56472;52.114;5.492;2023-07-31T14:02:16;24.40;69.30
69328;DHT22;56472;52.114;5.492;2023-07-31T14:04:43;24.40;69.20
69328;DHT22;56472;52.114;5.492;2023-07-31T14:07:10;24.40;69.20
69328;DHT22;56472;52.114;5.492;2023-07-31T14:09:37;24.40;69.30
69328;DHT22;56472;52.114;5.492;2023-07-31T14:12:04;24.40;69.30
69328;DHT22;56472;52.114;5.492;2023-07-31T14:14:31;24.40;69.30
69328;DHT22;56472;52.114;5.492;2023-07-31T14:17:01;24.40;69.40
69328;DHT22;56472;52.114;5.492;2023-07-31T14:19:28;24.40;69.40
69328;DHT22;56472;52.114;5.492;2023-07-31T14:21:55;24.40;69.60
69328;DHT22;56472;52.114;5.492;2023-07-31T14:24:37;24.40;69.60
69328;DHT22;56472;52.114;5.492;2023-07-31T14:27:04;24.40;69.70
69328;DHT22;56472;52.114;5.492;2023-07-31T14:29:31;24.40;69.70
69328;DHT22;56472;52.114;5.492;2023-07-31T14:31:58;24.40;69.90
69328;DHT22;56472;52.114;5.492;2023-07-31T14:34:26;24.40;70.10
69328;DHT22;56472;52.114;5.492;2023-07-31T14:36:53;24.40;70.20
69328;DHT22;56472;52.114;5.492;2023-07-31T14:39:19;24.40;70.30
69328;DHT22;56472;52.114;5.492;2023-07-31T14:41:46;24.40;70.50
69328;DHT22;56472;52.114;5.492;2023-07-31T14:44:14;24.40;70.60
69328;DHT22;56472;52.114;5.492;2023-07-31T14:46:41;24.40;70.70
69328;DHT22;56472;52.114;5.492;2023-07-31T14:49:09;24.40;70.80
69328;DHT22;56472;52.114;5.492;2023-07-31T14:51:36;24.40;70.80
69328;DHT22;56472;52.114;5.492;2023-07-31T14:54:02;24.40;70.90
69328;DHT22;56472;52.114;5.492;2023-07-31T14:56:29;24.40;70.80
69328;DHT22;56472;52.114;5.492;2023-07-31T14:58:57;24.40;70.90
69328;DHT22;56472;52.114;5.492;2023-07-31T15:01:23;24.40;70.90
69328;DHT22;56472;52.114;5.492;2023-07-31T15:03:51;24.40;70.80
69328;DHT22;56472;52.114;5.492;2023-07-31T15:06:18;24.40;70.70
69328;DHT22;56472;52.114;5.492;2023-07-31T15:08:44;24.40;70.80
69328;DHT22;56472;52.114;5.492;2023-07-31T15:11:11;24.40;70.80
69328;DHT22;56472;52.114;5.492;2023-07-31T15:13:38;24.40;70.80
69328;DHT22;56472;52.114;5.492;2023-07-31T15:16:05;24.40;70.80
69328;DHT22;56472;52.114;5.492;2023-07-31T15:18:31;24.40;71.70
69328;DHT22;56472;52.114;5.492;2023-07-31T15:20:58;24.40;70.80
69328;DHT22;56472;52.114;5.492;2023-07-31T15:23:25;24.40;70.70
69328;DHT22;56472;52.114;5.492;2023-07-31T15:25:52;24.40;70.70
69328;DHT22;56472;52.114;5.492;2023-07-31T15:28:19;24.30;70.60
69328;DHT22;56472;52.114;5.492;2023-07-31T15:30:46;24.40;70.80
69328;DHT22;56472;52.114;5.492;2023-07-31T15:33:15;24.30;70.70
69328;DHT22;56472;52.114;5.492;2023-07-31T15:35:42;24.40;70.80
69328;DHT22;56472;52.114;5.492;2023-07-31T15:38:09;24.30;70.70
69328;DHT22;56472;52.114;5.492;2023-07-31T15:40:37;24.30;70.80
69328;DHT22;56472;52.114;5.492;2023-07-31T15:43:04;24.30;70.60